sensor_id;sensor_type;location;lat;lon;timestamp;P1;durP1;ratioP1;P2;durP2;ratioP2
2009;SDS011;1008;47.404;8.502;2023-04-03T00:02:00;6.50;;;3.90;;
2009;SDS011;1008;47.404;8.502;2023-04-03T00:04:27;5.67;;;3.43;;
2009;SDS011;1008;47.404;8.502;2023-04-03T00:06:55;6.63;;;4.03;;
2009;SDS011;1008;47.404;8.502;2023-04-03T00:09:21;5.53;;;3.63;;
2009;SDS011;1008;47.404;8.502;2023-04-03T00:11:48;6.43;;;3.90;;
2009;SDS011;1008;47.404;8.502;2023-04-03T00:14:15;6.77;;;4.67;;
2009;SDS011;1008;47.404;8.502;2023-04-03T00:16:42;8.17;;;5.13;;
2009;SDS011;1008;47.404;8.502;2023-04-03T00:19:10;7.13;;;4.17;;
2009;SDS011;1008;47.404;8.502;2023-04-03T00:21:37;7.50;;;4.63;;
2009;SDS011;1008;47.404;8.502;2023-04-03T00:24:05;8.37;;;4.60;;
2009;SDS011;1008;47.404;8.502;2023-04-03T00:26:32;6.90;;;3.77;;
2009;SDS011;1008;47.404;8.502;2023-04-03T00:28:59;6.10;;;4.47;;
2009;SDS011;1008;47.404;8.502;2023-04-03T00:31:26;5.63;;;4.47;;
2009;SDS011;1008;47.404;8.502;2023-04-03T00:33:52;10.57;;;3.90;;
2009;SDS011;1008;47.404;8.502;2023-04-03T00:36:20;6.07;;;3.87;;
2009;SDS011;1008;47.404;8.502;2023-04-03T00:38:47;5.83;;;3.87;;
2009;SDS011;1008;47.404;8.502;2023-04-03T00:41:14;6.67;;;4.10;;
2009;SDS011;1008;47.404;8.502;2023-04-03T00:43:41;6.40;;;3.80;;
2009;SDS011;1008;47.404;8.502;2023-04-03T00:46:07;8.90;;;4.37;;
2009;SDS011;1008;47.404;8.502;2023-04-03T00:48:36;6.30;;;3.90;;
2009;SDS011;1008;47.404;8.502;2023-04-03T00:51:06;6.30;;;3.87;;
2009;SDS011;1008;47.404;8.502;2023-04-03T00:53:38;6.53;;;4.03;;
2009;SDS011;1008;47.404;8.502;2023-04-03T00:56:09;5.13;;;3.30;;
2009;SDS011;1008;47.404;8.502;2023-04-03T00:58:39;5.47;;;3.40;;
2009;SDS011;1008;47.404;8.502;2023-04-03T01:01:10;6.80;;;3.70;;
2009;SDS011;1008;47.404;8.502;2023-04-03T01:03:41;11.63;;;3.90;;
2009;SDS011;1008;47.404;8.502;2023-04-03T01:06:08;4.77;;;3.37;;
2009;SDS011;1008;47.404;8.502;2023-04-03T01:08:36;7.53;;;3.93;;
2009;SDS011;1008;47.404;8.502;2023-04-03T01:11:04;5.07;;;3.40;;
2009;SDS011;1008;47.404;8.502;2023-04-03T01:13:31;6.63;;;3.70;;
2009;SDS011;1008;47.404;8.502;2023-04-03T01:16:00;4.07;;;3.00;;
2009;SDS011;1008;47.404;8.502;2023-04-03T01:18:27;4.47;;;3.37;;
2009;SDS011;1008;47.404;8.502;2023-04-03T01:21:09;7.17;;;3.67;;
2009;SDS011;1008;47.404;8.502;2023-04-03T01:24:00;5.47;;;3.60;;
2009;SDS011;1008;47.404;8.502;2023-04-03T01:26:37;4.03;;;2.63;;
2009;SDS011;1008;47.404;8.502;2023-04-03T01:29:04;3.73;;;3.17;;
2009;SDS011;1008;47.404;8.502;2023-04-03T01:31:32;6.27;;;4.40;;
2009;SDS011;1008;47.404;8.502;2023-04-03T01:34:12;6.13;;;4.20;;
2009;SDS011;1008;47.404;8.502;2023-04-03T01:36:39;4.90;;;3.97;;
2009;SDS011;1008;47.404;8.502;2023-04-03T01:39:07;6.37;;;4.40;;
2009;SDS011;1008;47.404;8.502;2023-04-03T01:41:33;9.20;;;3.90;;
2009;SDS011;1008;47.404;8.502;2023-04-03T01:44:00;5.57;;;4.37;;
2009;SDS011;1008;47.404;8.502;2023-04-03T01:46:27;6.73;;;4.50;;
2009;SDS011;1008;47.404;8.502;2023-04-03T01:48:55;9.00;;;4.73;;
2009;SDS011;1008;47.404;8.502;2023-04-03T01:51:22;5.37;;;3.33;;
2009;SDS011;1008;47.404;8.502;2023-04-03T01:53:48;4.07;;;3.47;;
2009;SDS011;1008;47.404;8.502;2023-04-03T01:56:16;5.07;;;3.77;;
2009;SDS011;1008;47.404;8.502;2023-04-03T01:58:43;6.43;;;4.63;;
2009;SDS011;1008;47.404;8.502;2023-04-03T02:01:10;6.83;;;4.40;;
2009;SDS011;1008;47.404;8.502;2023-04-03T02:03:36;5.50;;;3.73;;
2009;SDS011;1008;47.404;8.502;2023-04-03T02:06:05;6.13;;;4.50;;
2009;SDS011;1008;47.404;8.502;2023-04-03T02:08:32;8.03;;;4.77;;
2009;SDS011;1008;47.404;8.502;2023-04-03T02:10:59;6.87;;;4.27;;
2009;SDS011;1008;47.404;8.502;2023-04-03T02:13:26;7.30;;;4.70;;
2009;SDS011;1008;47.404;8.502;2023-04-03T02:15:52;6.67;;;4.40;;
2009;SDS011;1008;47.404;8.502;2023-04-03T02:18:19;8.67;;;4.93;;
2009;SDS011;1008;47.404;8.502;2023-04-03T02:20:46;6.17;;;4.73;;
2009;SDS011;1008;47.404;8.502;2023-04-03T02:23:14;5.73;;;4.40;;
2009;SDS011;1008;47.404;8.502;2023-04-03T02:25:41;10.20;;;5.33;;
2009;SDS011;1008;47.404;8.502;2023-04-03T02:28:08;6.70;;;5.03;;
2009;SDS011;1008;47.404;8.502;2023-04-03T02:30:34;4.63;;;3.80;;
2009;SDS011;1008;47.404;8.502;2023-04-03T02:33:01;6.23;;;4.60;;
2009;SDS011;1008;47.404;8.502;2023-04-03T02:35:28;6.00;;;3.83;;
2009;SDS011;1008;47.404;8.502;2023-04-03T02:37:54;5.43;;;3.77;;
2009;SDS011;1008;47.404;8.502;2023-04-03T02:40:23;6.43;;;4.87;;
2009;SDS011;1008;47.404;8.502;2023-04-03T02:42:49;6.50;;;4.63;;
2009;SDS011;1008;47.404;8.502;2023-04-03T02:45:16;5.53;;;3.97;;
2009;SDS011;1008;47.404;8.502;2023-04-03T02:47:43;6.20;;;4.07;;
2009;SDS011;1008;47.404;8.502;2023-04-03T02:50:10;7.23;;;4.00;;
2009;SDS011;1008;47.404;8.502;2023-04-03T02:52:36;6.43;;;4.40;;
2009;SDS011;1008;47.404;8.502;2023-04-03T02:55:03;5.00;;;3.23;;
2009;SDS011;1008;47.404;8.502;2023-04-03T02:57:32;4.37;;;3.70;;
2009;SDS011;1008;47.404;8.502;2023-04-03T02:59:59;8.73;;;3.70;;
2009;SDS011;1008;47.404;8.502;2023-04-03T03:02:25;4.73;;;3.47;;
2009;SDS011;1008;47.404;8.502;2023-04-03T03:04:52;3.83;;;3.27;;
2009;SDS011;1008;47.404;8.502;2023-04-03T03:07:19;3.80;;;3.40;;
2009;SDS011;1008;47.404;8.502;2023-04-03T03:09:46;4.70;;;3.60;;
2009;SDS011;1008;47.404;8.502;2023-04-03T03:12:12;3.87;;;3.13;;
2009;SDS011;1008;47.404;8.502;2023-04-03T03:14:41;4.50;;;3.20;;
2009;SDS011;1008;47.404;8.502;2023-04-03T03:17:07;4.03;;;3.20;;
2009;SDS011;1008;47.404;8.502;2023-04-03T03:19:34;5.50;;;2.90;;
2009;SDS011;1008;47.404;8.502;2023-04-03T03:22:01;5.10;;;3.00;;
2009;SDS011;1008;47.404;8.502;2023-04-03T03:24:28;4.13;;;3.30;;
2009;SDS011;1008;47.404;8.502;2023-04-03T03:26:54;4.77;;;3.23;;
2009;SDS011;1008;47.404;8.502;2023-04-03T03:29:21;3.27;;;2.97;;
2009;SDS011;1008;47.404;8.502;2023-04-03T03:31:49;4.43;;;2.93;;
2009;SDS011;1008;47.404;8.502;2023-04-03T03:34:16;4.90;;;3.33;;
2009;SDS011;1008;47.404;8.502;2023-04-03T03:36:43;4.60;;;3.50;;
2009;SDS011;1008;47.404;8.502;2023-04-03T03:39:10;5.43;;;3.17;;
2009;SDS011;1008;47.404;8.502;2023-04-03T03:41:37;5.80;;;3.87;;
2009;SDS011;1008;47.404;8.502;2023-04-03T03:44:04;5.23;;;3.80;;
2009;SDS011;1008;47.404;8.502;2023-04-03T03:46:31;4.67;;;3.47;;
2009;SDS011;1008;47.404;8.502;2023-04-03T03:48:59;5.73;;;3.80;;
2009;SDS011;1008;47.404;8.502;2023-04-03T03:51:26;4.57;;;3.40;;
2009;SDS011;1008;47.404;8.502;2023-04-03T03:53:52;5.53;;;4.00;;
2009;SDS011;1008;47.404;8.502;2023-04-03T03:56:19;4.77;;;3.97;;
2009;SDS011;1008;47.404;8.502;2023-04-03T03:58:46;6.30;;;3.57;;
2009;SDS011;1008;47.404;8.502;2023-04-03T04:01:14;4.90;;;4.23;;
2009;SDS011;1008;47.404;8.502;2023-04-03T04:03:41;5.20;;;3.67;;
2009;SDS011;1008;47.404;8.502;2023-04-03T04:06:10;8.33;;;5.10;;
2009;SDS011;1008;47.404;8.502;2023-04-03T04:08:36;4.87;;;4.13;;
2009;SDS011;1008;47.404;8.502;2023-04-03T04:11:03;5.77;;;4.20;;
2009;SDS011;1008;47.404;8.502;2023-04-03T04:13:30;6.07;;;4.30;;
2009;SDS011;1008;47.404;8.502;2023-04-03T04:15:57;6.93;;;4.10;;
2009;SDS011;1008;47.404;8.502;2023-04-03T04:18:23;6.00;;;4.17;;
2009;SDS011;1008;47.404;8.502;2023-04-03T04:20:50;6.20;;;4.23;;
2009;SDS011;1008;47.404;8.502;2023-04-03T04:23:18;5.50;;;4.00;;
2009;SDS011;1008;47.404;8.502;2023-04-03T04:25:45;7.07;;;4.50;;
2009;SDS011;1008;47.404;8.502;2023-04-03T04:28:12;6.70;;;4.33;;
2009;SDS011;1008;47.404;8.502;2023-04-03T04:30:40;6.73;;;4.37;;
2009;SDS011;1008;47.404;8.502;2023-04-03T04:33:07;5.70;;;4.00;;
2009;SDS011;1008;47.404;8.502;2023-04-03T04:35:34;7.00;;;4.47;;
2009;SDS011;1008;47.404;8.502;2023-04-03T04:38:01;4.93;;;3.73;;
2009;SDS011;1008;47.404;8.502;2023-04-03T04:40:30;6.50;;;4.60;;
2009;SDS011;1008;47.404;8.502;2023-04-03T04:42:56;6.43;;;4.40;;
2009;SDS011;1008;47.404;8.502;2023-04-03T04:45:23;5.50;;;3.93;;
2009;SDS011;1008;47.404;8.502;2023-04-03T04:47:50;7.87;;;5.00;;
2009;SDS011;1008;47.404;8.502;2023-04-03T04:50:17;5.57;;;4.00;;
2009;SDS011;1008;47.404;8.502;2023-04-03T04:52:44;13.47;;;4.27;;
2009;SDS011;1008;47.404;8.502;2023-04-03T04:55:11;6.10;;;4.30;;
2009;SDS011;1008;47.404;8.502;2023-04-03T04:57:39;4.40;;;3.33;;
2009;SDS011;1008;47.404;8.502;2023-04-03T05:00:06;4.97;;;3.90;;
2009;SDS011;1008;47.404;8.502;2023-04-03T05:02:34;5.40;;;4.13;;
2009;SDS011;1008;47.404;8.502;2023-04-03T05:05:01;6.77;;;3.80;;
2009;SDS011;1008;47.404;8.502;2023-04-03T05:07:28;5.77;;;3.87;;
2009;SDS011;1008;47.404;8.502;2023-04-03T05:09:55;6.80;;;3.70;;
2009;SDS011;1008;47.404;8.502;2023-04-03T05:12:21;5.30;;;3.43;;
2009;SDS011;1008;47.404;8.502;2023-04-03T05:14:49;4.33;;;3.93;;
2009;SDS011;1008;47.404;8.502;2023-04-03T05:17:16;4.43;;;2.90;;
2009;SDS011;1008;47.404;8.502;2023-04-03T05:19:43;5.33;;;3.47;;
2009;SDS011;1008;47.404;8.502;2023-04-03T05:22:10;4.53;;;3.67;;
2009;SDS011;1008;47.404;8.502;2023-04-03T05:24:36;6.67;;;4.40;;
2009;SDS011;1008;47.404;8.502;2023-04-03T05:27:03;5.50;;;3.63;;
2009;SDS011;1008;47.404;8.502;2023-04-03T05:29:30;5.00;;;3.67;;
2009;SDS011;1008;47.404;8.502;2023-04-03T05:31:58;5.97;;;4.10;;
2009;SDS011;1008;47.404;8.502;2023-04-03T05:34:25;4.73;;;3.13;;
2009;SDS011;1008;47.404;8.502;2023-04-03T05:36:52;5.87;;;3.77;;
2009;SDS011;1008;47.404;8.502;2023-04-03T05:39:19;2.83;;;2.50;;
2009;SDS011;1008;47.404;8.502;2023-04-03T05:41:47;5.60;;;3.80;;
2009;SDS011;1008;47.404;8.502;2023-04-03T05:44:14;3.40;;;3.00;;
2009;SDS011;1008;47.404;8.502;2023-04-03T05:46:41;3.83;;;3.10;;
2009;SDS011;1008;47.404;8.502;2023-04-03T05:49:09;4.87;;;2.90;;
2009;SDS011;1008;47.404;8.502;2023-04-03T05:51:36;5.83;;;3.70;;
2009;SDS011;1008;47.404;8.502;2023-04-03T05:54:06;4.80;;;3.87;;
2009;SDS011;1008;47.404;8.502;2023-04-03T05:56:37;5.27;;;2.90;;
2009;SDS011;1008;47.404;8.502;2023-04-03T05:59:03;3.90;;;3.17;;
2009;SDS011;1008;47.404;8.502;2023-04-03T06:01:30;4.70;;;3.47;;
2009;SDS011;1008;47.404;8.502;2023-04-03T06:03:57;4.33;;;3.37;;
2009;SDS011;1008;47.404;8.502;2023-04-03T06:06:25;4.43;;;3.10;;
2009;SDS011;1008;47.404;8.502;2023-04-03T06:08:52;5.30;;;3.50;;
2009;SDS011;1008;47.404;8.502;2023-04-03T06:11:19;4.27;;;3.03;;
2009;SDS011;1008;47.404;8.502;2023-04-03T06:13:46;3.97;;;3.20;;
2009;SDS011;1008;47.404;8.502;2023-04-03T06:16:13;4.63;;;3.20;;
2009;SDS011;1008;47.404;8.502;2023-04-03T06:18:43;3.73;;;2.90;;
2009;SDS011;1008;47.404;8.502;2023-04-03T06:21:10;4.70;;;3.27;;
2009;SDS011;1008;47.404;8.502;2023-04-03T06:23:38;6.47;;;3.47;;
2009;SDS011;1008;47.404;8.502;2023-04-03T06:26:05;4.47;;;3.77;;
2009;SDS011;1008;47.404;8.502;2023-04-03T06:28:32;5.70;;;3.07;;
2009;SDS011;1008;47.404;8.502;2023-04-03T06:30:59;3.13;;;2.83;;
2009;SDS011;1008;47.404;8.502;2023-04-03T06:33:25;4.83;;;3.57;;
2009;SDS011;1008;47.404;8.502;2023-04-03T06:35:55;8.20;;;3.30;;
2009;SDS011;1008;47.404;8.502;2023-04-03T06:38:23;3.20;;;2.90;;
2009;SDS011;1008;47.404;8.502;2023-04-03T06:40:51;4.73;;;3.20;;
2009;SDS011;1008;47.404;8.502;2023-04-03T06:43:19;3.83;;;2.87;;
2009;SDS011;1008;47.404;8.502;2023-04-03T06:45:46;4.43;;;3.20;;
2009;SDS011;1008;47.404;8.502;2023-04-03T06:48:13;5.23;;;3.10;;
2009;SDS011;1008;47.404;8.502;2023-04-03T06:50:40;7.83;;;2.73;;
2009;SDS011;1008;47.404;8.502;2023-04-03T06:53:07;3.70;;;3.17;;
2009;SDS011;1008;47.404;8.502;2023-04-03T06:55:34;3.73;;;2.93;;
2009;SDS011;1008;47.404;8.502;2023-04-03T06:58:03;5.00;;;2.47;;
2009;SDS011;1008;47.404;8.502;2023-04-03T07:00:29;3.70;;;2.70;;
2009;SDS011;1008;47.404;8.502;2023-04-03T07:02:56;2.57;;;2.37;;
2009;SDS011;1008;47.404;8.502;2023-04-03T07:05:23;3.17;;;2.87;;
2009;SDS011;1008;47.404;8.502;2023-04-03T07:07:51;5.70;;;3.00;;
2009;SDS011;1008;47.404;8.502;2023-04-03T07:10:19;3.97;;;2.60;;
2009;SDS011;1008;47.404;8.502;2023-04-03T07:12:46;2.90;;;2.40;;
2009;SDS011;1008;47.404;8.502;2023-04-03T07:15:14;5.30;;;2.90;;
2009;SDS011;1008;47.404;8.502;2023-04-03T07:17:41;5.03;;;3.17;;
2009;SDS011;1008;47.404;8.502;2023-04-03T07:20:08;4.90;;;3.23;;
2009;SDS011;1008;47.404;8.502;2023-04-03T07:22:35;2.97;;;2.50;;
2009;SDS011;1008;47.404;8.502;2023-04-03T07:25:02;3.17;;;2.83;;
2009;SDS011;1008;47.404;8.502;2023-04-03T07:27:32;3.63;;;2.93;;
2009;SDS011;1008;47.404;8.502;2023-04-03T07:29:59;9.73;;;2.97;;
2009;SDS011;1008;47.404;8.502;2023-04-03T07:32:27;3.67;;;2.60;;
2009;SDS011;1008;47.404;8.502;2023-04-03T07:34:54;3.50;;;2.63;;
2009;SDS011;1008;47.404;8.502;2023-04-03T07:37:21;3.60;;;2.87;;
2009;SDS011;1008;47.404;8.502;2023-04-03T07:39:48;3.13;;;2.73;;
2009;SDS011;1008;47.404;8.502;2023-04-03T07:42:15;2.73;;;2.17;;
2009;SDS011;1008;47.404;8.502;2023-04-03T07:44:42;2.77;;;2.30;;
2009;SDS011;1008;47.404;8.502;2023-04-03T07:47:09;2.97;;;2.33;;
2009;SDS011;1008;47.404;8.502;2023-04-03T07:49:37;4.10;;;2.70;;
2009;SDS011;1008;47.404;8.502;2023-04-03T07:52:05;3.50;;;2.50;;
2009;SDS011;1008;47.404;8.502;2023-04-03T07:54:34;2.70;;;2.20;;
2009;SDS011;1008;47.404;8.502;2023-04-03T07:57:00;2.80;;;2.53;;
2009;SDS011;1008;47.404;8.502;2023-04-03T07:59:27;2.90;;;2.50;;
2009;SDS011;1008;47.404;8.502;2023-04-03T08:01:54;4.53;;;2.70;;
2009;SDS011;1008;47.404;8.502;2023-04-03T08:04:21;5.50;;;3.27;;
2009;SDS011;1008;47.404;8.502;2023-04-03T08:06:50;4.33;;;3.17;;
2009;SDS011;1008;47.404;8.502;2023-04-03T08:09:17;3.27;;;2.70;;
2009;SDS011;1008;47.404;8.502;2023-04-03T08:11:44;5.10;;;2.70;;
2009;SDS011;1008;47.404;8.502;2023-04-03T08:14:11;5.33;;;2.10;;
2009;SDS011;1008;47.404;8.502;2023-04-03T08:16:41;2.70;;;2.50;;
2009;SDS011;1008;47.404;8.502;2023-04-03T08:19:08;2.70;;;2.47;;
2009;SDS011;1008;47.404;8.502;2023-04-03T08:21:36;2.60;;;2.40;;
2009;SDS011;1008;47.404;8.502;2023-04-03T08:24:04;3.00;;;2.70;;
2009;SDS011;1008;47.404;8.502;2023-04-03T08:26:31;2.40;;;2.20;;
2009;SDS011;1008;47.404;8.502;2023-04-03T08:28:58;3.03;;;2.20;;
2009;SDS011;1008;47.404;8.502;2023-04-03T08:31:25;5.10;;;2.60;;
2009;SDS011;1008;47.404;8.502;2023-04-03T08:33:52;2.10;;;2.00;;
2009;SDS011;1008;47.404;8.502;2023-04-03T08:36:19;2.77;;;2.57;;
2009;SDS011;1008;47.404;8.502;2023-04-03T08:38:47;3.43;;;2.90;;
2009;SDS011;1008;47.404;8.502;2023-04-03T08:41:18;3.20;;;2.43;;
2009;SDS011;1008;47.404;8.502;2023-04-03T08:44:07;3.67;;;2.90;;
2009;SDS011;1008;47.404;8.502;2023-04-03T08:46:54;3.43;;;2.70;;
2009;SDS011;1008;47.404;8.502;2023-04-03T08:49:30;2.70;;;2.43;;
2009;SDS011;1008;47.404;8.502;2023-04-03T08:51:59;5.87;;;2.60;;
2009;SDS011;1008;47.404;8.502;2023-04-03T08:54:31;4.57;;;2.50;;
2009;SDS011;1008;47.404;8.502;2023-04-03T08:57:03;2.87;;;2.30;;
2009;SDS011;1008;47.404;8.502;2023-04-03T08:59:33;4.30;;;2.90;;
2009;SDS011;1008;47.404;8.502;2023-04-03T09:02:03;3.07;;;2.77;;
2009;SDS011;1008;47.404;8.502;2023-04-03T09:04:48;3.37;;;2.67;;
2009;SDS011;1008;47.404;8.502;2023-04-03T09:07:16;5.80;;;2.63;;
2009;SDS011;1008;47.404;8.502;2023-04-03T09:09:48;2.70;;;2.20;;
2009;SDS011;1008;47.404;8.502;2023-04-03T09:12:18;2.90;;;2.33;;
2009;SDS011;1008;47.404;8.502;2023-04-03T09:14:54;2.37;;;2.17;;
2009;SDS011;1008;47.404;8.502;2023-04-03T09:17:31;2.43;;;2.23;;
2009;SDS011;1008;47.404;8.502;2023-04-03T09:20:08;4.57;;;2.83;;
2009;SDS011;1008;47.404;8.502;2023-04-03T09:22:43;3.80;;;2.63;;
2009;SDS011;1008;47.404;8.502;2023-04-03T09:25:12;3.50;;;2.87;;
2009;SDS011;1008;47.404;8.502;2023-04-03T09:27:44;3.00;;;2.33;;
2009;SDS011;1008;47.404;8.502;2023-04-03T09:30:12;3.23;;;2.30;;
2009;SDS011;1008;47.404;8.502;2023-04-03T09:32:41;5.23;;;3.77;;
2009;SDS011;1008;47.404;8.502;2023-04-03T09:35:16;2.90;;;2.20;;
2009;SDS011;1008;47.404;8.502;2023-04-03T09:37:50;7.10;;;2.87;;
2009;SDS011;1008;47.404;8.502;2023-04-03T09:40:29;3.50;;;2.57;;
2009;SDS011;1008;47.404;8.502;2023-04-03T09:43:02;3.00;;;2.20;;
2009;SDS011;1008;47.404;8.502;2023-04-03T09:45:45;3.47;;;2.57;;
2009;SDS011;1008;47.404;8.502;2023-04-03T09:48:15;3.50;;;2.40;;
2009;SDS011;1008;47.404;8.502;2023-04-03T09:50:52;2.80;;;2.33;;
2009;SDS011;1008;47.404;8.502;2023-04-03T09:53:31;2.67;;;2.20;;
2009;SDS011;1008;47.404;8.502;2023-04-03T09:56:00;3.70;;;3.17;;
2009;SDS011;1008;47.404;8.502;2023-04-03T09:58:32;2.93;;;2.60;;
2009;SDS011;1008;47.404;8.502;2023-04-03T10:01:03;3.00;;;2.70;;
2009;SDS011;1008;47.404;8.502;2023-04-03T10:03:32;3.70;;;2.63;;
2009;SDS011;1008;47.404;8.502;2023-04-03T10:06:00;2.30;;;1.90;;
2009;SDS011;1008;47.404;8.502;2023-04-03T10:08:29;3.00;;;2.33;;
2009;SDS011;1008;47.404;8.502;2023-04-03T10:11:08;4.73;;;2.17;;
2009;SDS011;1008;47.404;8.502;2023-04-03T10:13:38;3.73;;;2.70;;
2009;SDS011;1008;47.404;8.502;2023-04-03T10:16:17;2.87;;;2.60;;
2009;SDS011;1008;47.404;8.502;2023-04-03T10:18:48;2.50;;;2.30;;
2009;SDS011;1008;47.404;8.502;2023-04-03T10:21:24;5.57;;;2.50;;
2009;SDS011;1008;47.404;8.502;2023-04-03T10:23:59;2.27;;;2.07;;
2009;SDS011;1008;47.404;8.502;2023-04-03T10:26:36;4.97;;;3.20;;
2009;SDS011;1008;47.404;8.502;2023-04-03T10:29:09;3.67;;;2.87;;
2009;SDS011;1008;47.404;8.502;2023-04-03T10:31:49;2.80;;;2.57;;
2009;SDS011;1008;47.404;8.502;2023-04-03T10:34:24;2.53;;;2.30;;
2009;SDS011;1008;47.404;8.502;2023-04-03T10:36:56;4.00;;;2.60;;
2009;SDS011;1008;47.404;8.502;2023-04-03T10:39:33;5.00;;;2.60;;
2009;SDS011;1008;47.404;8.502;2023-04-03T10:42:07;5.20;;;2.80;;
2009;SDS011;1008;47.404;8.502;2023-04-03T10:44:43;3.20;;;2.33;;
2009;SDS011;1008;47.404;8.502;2023-04-03T10:47:21;5.40;;;3.07;;
2009;SDS011;1008;47.404;8.502;2023-04-03T10:49:58;3.17;;;2.77;;
2009;SDS011;1008;47.404;8.502;2023-04-03T10:52:35;4.93;;;3.17;;
2009;SDS011;1008;47.404;8.502;2023-04-03T10:55:14;3.00;;;2.53;;
2009;SDS011;1008;47.404;8.502;2023-04-03T10:57:55;3.30;;;2.60;;
2009;SDS011;1008;47.404;8.502;2023-04-03T11:00:26;2.83;;;2.60;;
2009;SDS011;1008;47.404;8.502;2023-04-03T11:03:00;2.97;;;2.47;;
2009;SDS011;1008;47.404;8.502;2023-04-03T11:05:32;2.37;;;2.17;;
2009;SDS011;1008;47.404;8.502;2023-04-03T11:08:04;2.60;;;2.40;;
2009;SDS011;1008;47.404;8.502;2023-04-03T11:10:37;2.50;;;2.30;;
2009;SDS011;1008;47.404;8.502;2023-04-03T11:13:08;3.43;;;2.33;;
2009;SDS011;1008;47.404;8.502;2023-04-03T11:15:40;3.47;;;2.60;;
2009;SDS011;1008;47.404;8.502;2023-04-03T11:18:09;3.63;;;2.97;;
2009;SDS011;1008;47.404;8.502;2023-04-03T11:20:40;3.83;;;3.40;;
2009;SDS011;1008;47.404;8.502;2023-04-03T11:23:12;5.03;;;3.10;;
2009;SDS011;1008;47.404;8.502;2023-04-03T11:25:47;3.67;;;2.40;;
2009;SDS011;1008;47.404;8.502;2023-04-03T11:28:18;2.90;;;2.47;;
2009;SDS011;1008;47.404;8.502;2023-04-03T11:30:47;4.33;;;3.07;;
2009;SDS011;1008;47.404;8.502;2023-04-03T11:33:32;4.33;;;3.10;;
2009;SDS011;1008;47.404;8.502;2023-04-03T11:36:08;2.47;;;2.27;;
2009;SDS011;1008;47.404;8.502;2023-04-03T11:38:38;3.17;;;2.60;;
2009;SDS011;1008;47.404;8.502;2023-04-03T11:41:09;4.30;;;3.00;;
2009;SDS011;1008;47.404;8.502;2023-04-03T11:43:40;3.07;;;2.40;;
2009;SDS011;1008;47.404;8.502;2023-04-03T11:46:09;3.60;;;2.70;;
2009;SDS011;1008;47.404;8.502;2023-04-03T11:48:49;3.07;;;2.57;;
2009;SDS011;1008;47.404;8.502;2023-04-03T12:06:48;5.47;;;3.00;;
2009;SDS011;1008;47.404;8.502;2023-04-03T12:12:24;3.63;;;2.87;;
2009;SDS011;1008;47.404;8.502;2023-04-03T12:14:55;4.30;;;2.57;;
2009;SDS011;1008;47.404;8.502;2023-04-03T12:17:37;2.70;;;2.20;;
2009;SDS011;1008;47.404;8.502;2023-04-03T12:23:21;5.20;;;3.23;;
2009;SDS011;1008;47.404;8.502;2023-04-03T12:25:51;11.87;;;6.10;;
2009;SDS011;1008;47.404;8.502;2023-04-03T12:28:25;4.40;;;3.10;;
2009;SDS011;1008;47.404;8.502;2023-04-03T12:30:53;7.07;;;4.50;;
2009;SDS011;1008;47.404;8.502;2023-04-03T12:33:24;4.80;;;3.47;;
2009;SDS011;1008;47.404;8.502;2023-04-03T12:36:02;10.00;;;5.63;;
2009;SDS011;1008;47.404;8.502;2023-04-03T12:38:39;6.93;;;4.00;;
2009;SDS011;1008;47.404;8.502;2023-04-03T12:41:27;5.70;;;4.57;;
2009;SDS011;1008;47.404;8.502;2023-04-03T12:44:15;4.90;;;3.87;;
2009;SDS011;1008;47.404;8.502;2023-04-03T12:46:58;4.80;;;3.03;;
2009;SDS011;1008;47.404;8.502;2023-04-03T12:49:32;6.00;;;3.13;;
2009;SDS011;1008;47.404;8.502;2023-04-03T12:52:04;6.77;;;3.37;;
2009;SDS011;1008;47.404;8.502;2023-04-03T12:54:44;3.07;;;2.70;;
2009;SDS011;1008;47.404;8.502;2023-04-03T12:57:15;5.47;;;3.80;;
2009;SDS011;1008;47.404;8.502;2023-04-03T12:59:44;4.00;;;3.13;;
2009;SDS011;1008;47.404;8.502;2023-04-03T13:02:20;6.53;;;3.40;;
2009;SDS011;1008;47.404;8.502;2023-04-03T13:04:49;5.70;;;3.77;;
2009;SDS011;1008;47.404;8.502;2023-04-03T13:07:18;7.73;;;4.20;;
2009;SDS011;1008;47.404;8.502;2023-04-03T13:10:02;8.37;;;4.47;;
2009;SDS011;1008;47.404;8.502;2023-04-03T13:12:45;4.20;;;3.43;;
2009;SDS011;1008;47.404;8.502;2023-04-03T13:15:15;2.80;;;2.60;;
2009;SDS011;1008;47.404;8.502;2023-04-03T13:17:43;4.30;;;2.80;;
2009;SDS011;1008;47.404;8.502;2023-04-03T13:20:15;3.73;;;3.10;;
2009;SDS011;1008;47.404;8.502;2023-04-03T13:22:49;3.30;;;3.00;;
2009;SDS011;1008;47.404;8.502;2023-04-03T13:25:23;3.07;;;2.77;;
2009;SDS011;1008;47.404;8.502;2023-04-03T13:27:51;3.27;;;2.90;;
2009;SDS011;1008;47.404;8.502;2023-04-03T13:30:20;3.00;;;2.40;;
2009;SDS011;1008;47.404;8.502;2023-04-03T13:32:50;2.80;;;2.60;;
2009;SDS011;1008;47.404;8.502;2023-04-03T13:35:24;4.60;;;2.67;;
2009;SDS011;1008;47.404;8.502;2023-04-03T13:37:53;4.27;;;2.77;;
2009;SDS011;1008;47.404;8.502;2023-04-03T13:40:23;3.07;;;2.77;;
2009;SDS011;1008;47.404;8.502;2023-04-03T13:42:58;4.77;;;2.90;;
2009;SDS011;1008;47.404;8.502;2023-04-03T13:45:30;5.17;;;2.63;;
2009;SDS011;1008;47.404;8.502;2023-04-03T13:50:51;3.47;;;3.10;;
2009;SDS011;1008;47.404;8.502;2023-04-03T13:53:21;3.67;;;2.87;;
2009;SDS011;1008;47.404;8.502;2023-04-03T13:55:54;3.50;;;2.73;;
2009;SDS011;1008;47.404;8.502;2023-04-03T13:58:23;4.80;;;3.70;;
2009;SDS011;1008;47.404;8.502;2023-04-03T14:00:52;3.20;;;2.53;;
2009;SDS011;1008;47.404;8.502;2023-04-03T14:03:20;3.23;;;2.83;;
2009;SDS011;1008;47.404;8.502;2023-04-03T14:05:49;5.13;;;2.90;;
2009;SDS011;1008;47.404;8.502;2023-04-03T14:08:16;3.57;;;2.90;;
2009;SDS011;1008;47.404;8.502;2023-04-03T14:10:43;2.80;;;2.57;;
2009;SDS011;1008;47.404;8.502;2023-04-03T14:13:12;3.30;;;3.00;;
2009;SDS011;1008;47.404;8.502;2023-04-03T14:15:41;3.47;;;3.13;;
2009;SDS011;1008;47.404;8.502;2023-04-03T14:18:10;4.17;;;2.67;;
2009;SDS011;1008;47.404;8.502;2023-04-03T14:20:37;5.30;;;3.00;;
2009;SDS011;1008;47.404;8.502;2023-04-03T14:23:04;3.37;;;2.50;;
2009;SDS011;1008;47.404;8.502;2023-04-03T14:25:31;2.30;;;2.10;;
2009;SDS011;1008;47.404;8.502;2023-04-03T14:27:59;4.13;;;2.80;;
2009;SDS011;1008;47.404;8.502;2023-04-03T14:30:28;2.93;;;2.27;;
2009;SDS011;1008;47.404;8.502;2023-04-03T14:32:57;3.20;;;2.97;;
2009;SDS011;1008;47.404;8.502;2023-04-03T14:35:25;3.43;;;2.53;;
2009;SDS011;1008;47.404;8.502;2023-04-03T14:37:53;2.60;;;2.40;;
2009;SDS011;1008;47.404;8.502;2023-04-03T14:40:21;4.00;;;3.10;;
2009;SDS011;1008;47.404;8.502;2023-04-03T14:42:50;2.80;;;2.50;;
2009;SDS011;1008;47.404;8.502;2023-04-03T14:45:20;4.60;;;2.67;;
2009;SDS011;1008;47.404;8.502;2023-04-03T14:47:49;3.17;;;2.87;;
2009;SDS011;1008;47.404;8.502;2023-04-03T14:50:18;3.30;;;2.17;;
2009;SDS011;1008;47.404;8.502;2023-04-03T14:52:47;2.83;;;2.40;;
2009;SDS011;1008;47.404;8.502;2023-04-03T14:55:16;2.60;;;2.00;;
2009;SDS011;1008;47.404;8.502;2023-04-03T14:57:43;3.40;;;2.40;;
2009;SDS011;1008;47.404;8.502;2023-04-03T15:00:12;2.83;;;2.50;;
2009;SDS011;1008;47.404;8.502;2023-04-03T15:02:41;2.70;;;2.47;;
2009;SDS011;1008;47.404;8.502;2023-04-03T15:05:10;2.80;;;2.60;;
2009;SDS011;1008;47.404;8.502;2023-04-03T15:07:39;3.83;;;2.63;;
2009;SDS011;1008;47.404;8.502;2023-04-03T15:10:14;2.83;;;2.30;;
2009;SDS011;1008;47.404;8.502;2023-04-03T15:12:44;2.47;;;2.20;;
2009;SDS011;1008;47.404;8.502;2023-04-03T15:15:11;4.73;;;2.33;;
2009;SDS011;1008;47.404;8.502;2023-04-03T15:17:37;2.73;;;2.43;;
2009;SDS011;1008;47.404;8.502;2023-04-03T15:20:06;2.70;;;2.50;;
2009;SDS011;1008;47.404;8.502;2023-04-03T15:22:41;2.83;;;2.17;;
2009;SDS011;1008;47.404;8.502;2023-04-03T15:25:08;2.80;;;2.13;;
2009;SDS011;1008;47.404;8.502;2023-04-03T15:27:35;2.80;;;2.57;;
2009;SDS011;1008;47.404;8.502;2023-04-03T15:30:03;2.60;;;2.40;;
2009;SDS011;1008;47.404;8.502;2023-04-03T15:32:33;2.70;;;2.20;;
2009;SDS011;1008;47.404;8.502;2023-04-03T15:35:00;2.20;;;2.00;;
2009;SDS011;1008;47.404;8.502;2023-04-03T15:37:29;5.07;;;2.60;;
2009;SDS011;1008;47.404;8.502;2023-04-03T15:39:56;3.67;;;2.60;;
2009;SDS011;1008;47.404;8.502;2023-04-03T15:42:23;4.97;;;3.03;;
2009;SDS011;1008;47.404;8.502;2023-04-03T15:44:49;3.33;;;3.03;;
2009;SDS011;1008;47.404;8.502;2023-04-03T15:47:16;2.83;;;2.53;;
2009;SDS011;1008;47.404;8.502;2023-04-03T15:49:43;3.50;;;3.20;;
2009;SDS011;1008;47.404;8.502;2023-04-03T15:52:10;2.73;;;2.23;;
2009;SDS011;1008;47.404;8.502;2023-04-03T15:54:38;3.50;;;2.70;;